Country
Station

 

Weather  for  Gallivare  -  Sweden    Sweden

  
11 °C (52 °F)
    
 
 

Current METAR for Gallivare is :

ESNG 201950Z AUTO 10006KT 9999 -RA FEW009/// BKN053/// OVC072/// 11/10 Q1009

 

This is a report for Gallivare - Sweden.
 
The report was made 31 minutes ago, at 19:50 UTC .
The wind was blowing at a speed of 3.1 meters per second (6.9 miles per hour) from east (100°).
 
The temperature was 11 °C (52 °F), with a dew-point at 10 °C (50 °F).
The atmospheric pressure was 1009 hPa (29.80 inHg).
The relative humidity was 93.5%.
 
The overall visibility was greater than 10 kilometers (6.2 miles).
 
Currently light rain.

 
 
 
 

Country :   A   B   C   D   E   F   G   H   I   J   K   L   M   N   O   P   Q   R   S   T   U   V   W   Y   Z

 

Site Info  |  Disclaimer  |  Credits  |  Privacy
Contact us  |  Add to favorites
© 2013-2019 METARs - All rights reserved